Time;durP1;ratioP1;P1;durP2;ratioP2;P2;SDS_P1;SDS_P2;PMS_P1;PMS_P2;Temp;Humidity;BMP_temperature;BMP_pressure;BME280_temperature;BME280_humidity;BME280_pressure;Samples;Min_cycle;Max_cycle;Signal;HPM_P1;HPM_P2
2022/05/06 00:00:13;;;;;;;40.88;26.63;;;11.40;99.90;;;;;;5029520;28;20061;-63
2022/05/06 00:02:39;;;;;;;39.40;26.48;;;11.40;99.90;;;;;;5012129;28;20053;-63
2022/05/06 00:05:06;;;;;;;36.00;24.35;;;11.40;99.90;;;;;;5027387;28;20409;-63
2022/05/06 00:07:32;;;;;;;37.42;25.60;;;11.40;99.90;;;;;;5029818;28;20483;-62
2022/05/06 00:09:57;;;;;;;37.35;26.20;;;11.30;99.90;;;;;;5029519;28;20049;-63
2022/05/06 00:12:23;;;;;;;41.00;27.10;;;11.30;99.90;;;;;;5026785;28;20102;-63
2022/05/06 00:14:49;;;;;;;40.30;26.00;;;11.30;99.90;;;;;;5029914;28;20072;-65
2022/05/06 00:17:15;;;;;;;38.70;26.60;;;11.20;99.90;;;;;;5028820;28;20059;-64
2022/05/06 00:19:45;;;;;;;44.88;27.70;;;11.20;99.90;;;;;;5029676;28;20540;-62
2022/05/06 00:22:11;;;;;;;39.55;26.73;;;11.10;99.90;;;;;;5028897;28;20541;-63
2022/05/06 00:24:37;;;;;;;39.40;26.35;;;11.10;99.90;;;;;;5028156;28;20061;-63
2022/05/06 00:27:04;;;;;;;39.55;25.60;;;11.10;99.90;;;;;;5027652;28;20469;-63
2022/05/06 00:29:30;;;;;;;43.80;28.17;;;11.00;99.90;;;;;;4995913;28;20089;-64
2022/05/06 00:31:56;;;;;;;40.75;26.23;;;11.00;99.90;;;;;;5010440;28;20474;-63
2022/05/06 00:34:22;;;;;;;37.55;26.35;;;10.90;99.90;;;;;;5027578;28;20085;-63
2022/05/06 00:36:48;;;;;;;38.97;25.83;;;10.90;99.90;;;;;;5028344;28;20042;-63
2022/05/06 00:39:14;;;;;;;37.47;25.30;;;10.90;99.90;;;;;;5029026;28;20474;-63
2022/05/06 00:41:40;;;;;;;39.05;25.67;;;10.80;99.90;;;;;;5029289;28;20406;-63
2022/05/06 00:44:06;;;;;;;36.72;24.70;;;10.80;99.90;;;;;;5028512;28;20492;-63
2022/05/06 00:46:35;;;;;;;35.78;24.65;;;10.70;99.90;;;;;;5029084;28;20050;-63
2022/05/06 00:49:01;;;;;;;39.20;25.05;;;10.70;99.90;;;;;;5029583;28;20056;-65
2022/05/06 00:51:27;;;;;;;42.15;25.65;;;10.60;99.90;;;;;;5029764;28;20090;-63
2022/05/06 00:53:55;;;;;;;36.10;25.63;;;10.60;99.90;;;;;;5032162;28;20053;-63
2022/05/06 00:56:24;;;;;;;39.67;25.73;;;10.60;99.90;;;;;;5032431;28;20050;-62
2022/05/06 00:58:51;;;;;;;37.88;25.65;;;10.60;99.90;;;;;;5033368;28;20103;-63
2022/05/06 01:01:18;;;;;;;35.47;24.80;;;10.60;99.90;;;;;;5032206;28;20054;-63
2022/05/06 01:03:44;;;;;;;38.03;24.80;;;10.50;99.90;;;;;;5032908;28;20056;-63
2022/05/06 01:06:16;;;;;;;38.03;24.83;;;10.60;99.90;;;;;;5032556;28;20120;-63
2022/05/06 01:08:43;;;;;;;38.15;25.83;;;10.50;99.90;;;;;;5033080;28;20049;-64
2022/05/06 01:11:11;;;;;;;34.25;23.92;;;10.50;99.90;;;;;;5032060;28;20053;-63
2022/05/06 01:13:40;;;;;;;38.78;23.48;;;10.50;99.90;;;;;;5031646;28;20057;-62
2022/05/06 01:16:06;;;;;;;34.90;24.00;;;10.50;99.90;;;;;;5024832;28;20116;-65
2022/05/06 01:18:32;;;;;;;36.45;24.58;;;10.50;99.90;;;;;;5031531;28;20083;-63
2022/05/06 01:21:00;;;;;;;36.47;24.50;;;10.50;99.90;;;;;;5032698;28;20092;-63
2022/05/06 01:23:26;;;;;;;35.58;23.13;;;10.50;99.90;;;;;;5031813;28;20643;-63
2022/05/06 01:25:52;;;;;;;39.20;24.55;;;10.50;99.90;;;;;;5031992;28;20045;-62
2022/05/06 01:28:21;;;;;;;38.70;25.23;;;10.50;99.90;;;;;;5032125;28;20053;-63
2022/05/06 01:30:48;;;;;;;39.05;23.90;;;10.40;99.90;;;;;;5032825;28;20064;-62
2022/05/06 01:33:15;;;;;;;36.55;23.92;;;10.40;99.90;;;;;;5030651;28;20050;-62
2022/05/06 01:35:48;;;;;;;36.72;24.83;;;10.40;99.90;;;;;;5030992;28;20140;-62
2022/05/06 01:38:24;;;;;;;37.47;24.92;;;10.40;99.90;;;;;;5031982;28;20045;-63
2022/05/06 01:40:54;;;;;;;37.95;25.95;;;10.40;99.90;;;;;;5031628;28;20405;-64
2022/05/06 01:43:23;;;;;;;40.38;27.90;;;10.40;99.90;;;;;;5030749;28;20148;-67
2022/05/06 01:45:50;;;;;;;43.72;28.90;;;10.40;99.90;;;;;;5031320;28;20049;-63
2022/05/06 01:48:16;;;;;;;45.72;27.25;;;10.40;99.90;;;;;;5031344;28;20084;-64
2022/05/06 01:50:43;;;;;;;40.28;26.98;;;10.40;99.90;;;;;;5031175;28;20054;-63
2022/05/06 01:53:09;;;;;;;38.38;26.65;;;10.40;99.90;;;;;;5030895;28;20075;-65
2022/05/06 01:55:36;;;;;;;38.95;26.65;;;10.40;99.90;;;;;;5030197;28;20060;-63
2022/05/06 01:58:04;;;;;;;39.70;25.48;;;10.40;99.90;;;;;;5030737;28;20046;-63
2022/05/06 02:00:29;;;;;;;42.28;26.75;;;10.40;99.90;;;;;;5031448;28;20140;-63
2022/05/06 02:02:56;;;;;;;43.53;27.48;;;10.40;99.90;;;;;;5029462;28;20565;-63
2022/05/06 02:05:24;;;;;;;46.90;28.75;;;10.40;99.90;;;;;;4997681;28;20053;-65
2022/05/06 02:07:52;;;;;;;43.45;29.10;;;10.40;99.90;;;;;;5030719;28;20556;-63
2022/05/06 02:10:20;;;;;;;41.35;28.10;;;10.40;99.90;;;;;;5029859;28;20041;-63
2022/05/06 02:12:47;;;;;;;44.00;26.63;;;10.40;99.90;;;;;;5032052;28;20049;-63
2022/05/06 02:15:14;;;;;;;47.33;30.10;;;10.30;99.90;;;;;;5030695;28;20041;-66
2022/05/06 02:17:41;;;;;;;42.40;29.48;;;10.40;99.90;;;;;;5030590;28;20056;-63
2022/05/06 02:20:09;;;;;;;47.20;30.67;;;10.30;99.90;;;;;;5031380;28;20045;-63
2022/05/06 02:22:36;;;;;;;49.90;30.95;;;10.40;99.90;;;;;;5029983;28;20049;-64
2022/05/06 02:25:09;;;;;;;51.28;29.98;;;10.30;99.90;;;;;;5030683;28;20045;-63
2022/05/06 02:27:37;;;;;;;47.72;31.38;;;10.30;99.90;;;;;;5027348;28;20045;-63
2022/05/06 02:35:33;;;;;;;46.33;28.35;;;10.20;99.90;;;;;;5029868;28;20057;-64
2022/05/06 02:37:58;;;;;;;50.38;31.40;;;10.20;99.90;;;;;;5013754;28;20046;-63
2022/05/06 02:40:24;;;;;;;46.42;29.33;;;10.20;99.90;;;;;;5029593;28;20077;-63
2022/05/06 02:42:50;;;;;;;51.20;31.52;;;10.20;99.90;;;;;;5031486;28;20049;-63
2022/05/06 02:45:15;;;;;;;48.20;30.35;;;10.20;99.90;;;;;;5031142;28;20053;-66
2022/05/06 02:47:41;;;;;;;47.25;30.55;;;10.20;99.90;;;;;;5030792;28;20049;-63
2022/05/06 02:50:07;;;;;;;51.15;31.73;;;10.10;99.90;;;;;;5030908;28;20053;-66
2022/05/06 02:52:33;;;;;;;47.38;29.35;;;10.10;99.90;;;;;;5028733;28;20052;-63
2022/05/06 02:54:59;;;;;;;50.10;31.48;;;10.10;99.90;;;;;;5031206;28;20049;-63
2022/05/06 02:57:24;;;;;;;47.47;28.88;;;10.10;99.90;;;;;;5030267;28;20499;-63
2022/05/06 02:59:50;;;;;;;48.92;30.25;;;10.10;99.90;;;;;;5030985;28;20045;-62
2022/05/06 03:02:16;;;;;;;51.20;30.67;;;10.00;99.90;;;;;;4995997;28;20065;-63
2022/05/06 03:04:42;;;;;;;44.47;29.85;;;10.00;99.90;;;;;;5011017;28;20049;-63
2022/05/06 03:07:08;;;;;;;52.17;31.58;;;10.00;99.90;;;;;;5014124;28;20037;-63
2022/05/06 03:09:35;;;;;;;49.47;31.67;;;10.00;99.90;;;;;;5012814;28;20152;-62
2022/05/06 03:12:01;;;;;;;49.00;30.40;;;10.00;99.90;;;;;;5029139;28;20057;-63
2022/05/06 03:14:27;;;;;;;50.15;31.55;;;10.00;99.90;;;;;;5030066;28;20451;-63
2022/05/06 03:16:53;;;;;;;53.05;31.70;;;9.90;99.90;;;;;;5012773;28;20056;-64
2022/05/06 03:19:19;;;;;;;46.67;29.98;;;10.00;99.90;;;;;;5028011;28;20052;-64
2022/05/06 03:21:53;;;;;;;48.55;29.33;;;10.00;99.90;;;;;;5028895;28;20100;-62
2022/05/06 03:24:19;;;;;;;51.45;31.23;;;9.90;99.90;;;;;;5029514;28;20403;-62
2022/05/06 03:26:45;;;;;;;57.17;31.27;;;9.90;99.90;;;;;;5029218;28;20080;-63
2022/05/06 03:29:11;;;;;;;72.20;34.75;;;9.90;99.90;;;;;;5029191;28;20049;-63
2022/05/06 03:31:38;;;;;;;77.45;34.88;;;9.90;99.90;;;;;;5028300;28;20083;-63
2022/05/06 03:34:04;;;;;;;85.18;34.22;;;9.90;99.90;;;;;;5028604;28;20115;-63
2022/05/06 03:36:30;;;;;;;72.90;31.55;;;9.90;99.90;;;;;;5029793;28;20049;-63
2022/05/06 03:38:56;;;;;;;79.53;29.83;;;9.90;99.90;;;;;;5030055;28;20536;-64
2022/05/06 03:41:22;;;;;;;102.25;31.20;;;9.90;99.90;;;;;;5029890;28;20049;-65
2022/05/06 03:43:47;;;;;;;127.68;33.10;;;9.90;99.90;;;;;;5028392;28;20537;-63
2022/05/06 03:46:13;;;;;;;202.27;38.58;;;9.80;99.90;;;;;;5028878;28;20056;-63
2022/05/06 03:48:39;;;;;;;85.18;31.38;;;9.80;99.90;;;;;;5029504;28;20119;-63
2022/05/06 03:51:21;;;;;;;89.18;31.80;;;9.80;99.90;;;;;;5010326;28;20050;-63
2022/05/06 03:53:55;;;;;;;77.07;31.45;;;9.90;99.90;;;;;;5021039;28;20091;-62
2022/05/06 03:56:22;;;;;;;94.53;32.10;;;9.80;99.90;;;;;;5029849;28;20409;-63
2022/05/06 03:58:49;;;;;;;95.03;34.78;;;9.90;99.90;;;;;;5027905;28;20056;-62
2022/05/06 04:01:19;;;;;;;89.70;34.28;;;9.80;99.90;;;;;;5029190;28;20164;-63
2022/05/06 04:03:46;;;;;;;76.53;31.63;;;9.80;99.90;;;;;;5028795;28;20041;-64
2022/05/06 04:06:14;;;;;;;142.77;34.80;;;9.90;99.90;;;;;;5028564;28;20096;-63
2022/05/06 04:08:44;;;;;;;102.97;32.80;;;9.90;99.90;;;;;;5029244;28;20057;-63
2022/05/06 04:11:10;;;;;;;70.25;32.67;;;9.90;99.90;;;;;;5025128;28;20116;-63
2022/05/06 04:13:36;;;;;;;99.30;33.47;;;10.00;99.90;;;;;;5029171;28;20053;-63
2022/05/06 04:16:02;;;;;;;97.57;34.33;;;9.90;99.90;;;;;;5028670;28;20049;-63
2022/05/06 04:18:28;;;;;;;87.10;34.63;;;9.90;99.90;;;;;;5029396;28;20505;-63
2022/05/06 04:23:39;;;;;;;106.88;38.05;;;9.90;99.90;;;;;;5029303;28;20135;-63
2022/05/06 04:26:11;;;;;;;179.35;40.33;;;9.90;99.90;;;;;;5033358;28;20131;-64
2022/05/06 04:28:37;;;;;;;110.07;37.63;;;9.90;99.90;;;;;;5018225;28;20217;-63
2022/05/06 04:31:04;;;;;;;82.68;37.55;;;9.90;99.90;;;;;;5035711;28;20378;-65
2022/05/06 04:33:31;;;;;;;121.28;39.30;;;9.90;99.90;;;;;;5034473;28;20060;-66
2022/05/06 04:35:59;;;;;;;101.82;39.63;;;9.90;99.90;;;;;;5034819;28;20053;-64
2022/05/06 04:38:28;;;;;;;112.93;41.97;;;9.90;99.90;;;;;;5036063;28;20054;-63
2022/05/06 04:40:55;;;;;;;78.22;38.25;;;9.90;99.90;;;;;;5035901;28;20136;-63
2022/05/06 04:43:21;;;;;;;77.70;37.83;;;9.90;99.90;;;;;;5035217;28;20118;-64
2022/05/06 04:45:48;;;;;;;81.68;36.38;;;10.00;99.90;;;;;;5035258;28;20045;-63
2022/05/06 04:48:15;;;;;;;93.65;38.20;;;9.90;99.90;;;;;;5034863;28;20057;-63
2022/05/06 04:50:42;;;;;;;102.13;39.05;;;9.90;99.90;;;;;;5034327;28;20045;-62
2022/05/06 04:53:09;;;;;;;88.00;36.90;;;9.90;99.90;;;;;;5033545;28;20099;-63
2022/05/06 04:55:49;;;;;;;70.38;36.40;;;9.90;99.90;;;;;;5017583;28;20042;-65
2022/05/06 04:58:18;;;;;;;64.28;33.58;;;10.00;99.90;;;;;;5036024;28;20045;-63
2022/05/06 05:00:44;;;;;;;65.18;34.08;;;10.00;99.90;;;;;;5034597;28;20111;-63
2022/05/06 05:03:10;;;;;;;53.55;30.98;;;10.00;99.90;;;;;;5034431;28;20072;-63
2022/05/06 05:05:36;;;;;;;51.85;29.77;;;10.10;99.90;;;;;;5035526;28;20048;-64
2022/05/06 05:08:01;;;;;;;56.50;30.27;;;10.20;99.90;;;;;;5034605;28;20042;-63
2022/05/06 05:10:27;;;;;;;52.97;29.38;;;10.20;99.90;;;;;;5035849;28;20130;-64
2022/05/06 05:12:53;;;;;;;46.75;28.67;;;10.20;99.90;;;;;;5035022;28;20045;-64
2022/05/06 05:15:19;;;;;;;47.92;27.65;;;10.20;99.90;;;;;;5035957;28;20048;-63
2022/05/06 05:17:46;;;;;;;43.88;28.42;;;10.40;99.90;;;;;;5033141;28;20116;-63
2022/05/06 05:20:15;;;;;;;52.83;26.58;;;10.20;99.90;;;;;;5035028;28;20184;-63
2022/05/06 05:22:42;;;;;;;48.10;25.05;;;10.10;99.90;;;;;;5035176;28;20042;-65
2022/05/06 05:25:08;;;;;;;50.28;25.63;;;10.10;99.90;;;;;;5035715;28;20140;-63
2022/05/06 05:27:36;;;;;;;38.80;24.17;;;10.10;99.90;;;;;;5034134;28;20120;-63
2022/05/06 05:30:04;;;;;;;49.03;25.30;;;10.10;99.90;;;;;;5035613;28;20049;-63
2022/05/06 05:32:31;;;;;;;47.42;26.80;;;10.10;99.90;;;;;;5034597;28;20136;-63
2022/05/06 05:34:56;;;;;;;42.88;24.25;;;10.20;99.90;;;;;;5033166;28;20057;-63
2022/05/06 05:37:22;;;;;;;44.55;26.58;;;10.20;99.90;;;;;;5032840;28;20050;-63
2022/05/06 05:39:48;;;;;;;56.20;27.85;;;10.30;99.90;;;;;;5014319;28;20053;-63
2022/05/06 05:42:24;;;;;;;46.63;26.95;;;10.30;99.90;;;;;;5032395;28;20076;-63
2022/05/06 05:50:18;;;;;;;44.03;28.25;;;10.30;99.90;;;;;;5012831;28;20046;-63
2022/05/06 05:52:45;;;;;;;43.65;27.98;;;10.30;99.90;;;;;;5010774;28;20116;-64
2022/05/06 05:55:11;;;;;;;43.20;28.95;;;10.40;99.90;;;;;;5019260;28;20082;-64
2022/05/06 05:57:37;;;;;;;43.80;29.08;;;10.40;99.90;;;;;;5031128;28;20125;-65
2022/05/06 06:00:05;;;;;;;48.50;30.48;;;10.50;99.90;;;;;;5031312;28;20041;-64
2022/05/06 06:02:31;;;;;;;50.00;30.02;;;10.50;99.90;;;;;;5032104;28;20053;-64
2022/05/06 06:04:57;;;;;;;51.13;30.70;;;10.50;99.90;;;;;;5031206;28;20565;-64
2022/05/06 06:07:23;;;;;;;46.80;30.23;;;10.50;99.90;;;;;;4995925;28;20060;-64
2022/05/06 06:09:49;;;;;;;46.88;29.98;;;10.50;99.90;;;;;;5021699;28;20498;-63
2022/05/06 06:12:15;;;;;;;64.65;30.00;;;10.60;99.90;;;;;;5010483;28;20137;-63
2022/05/06 06:14:41;;;;;;;59.17;31.30;;;10.60;99.90;;;;;;4994910;28;20053;-65
2022/05/06 06:17:06;;;;;;;52.58;31.38;;;10.60;99.90;;;;;;5026770;28;20053;-64
2022/05/06 06:19:32;;;;;;;53.00;31.20;;;10.60;99.90;;;;;;5030365;28;20502;-62
2022/05/06 06:21:58;;;;;;;52.85;30.00;;;10.70;99.90;;;;;;5013859;28;20045;-63
2022/05/06 06:24:24;;;;;;;52.50;29.60;;;10.70;99.90;;;;;;5030163;28;20046;-63
2022/05/06 06:26:50;;;;;;;56.20;30.38;;;10.60;99.90;;;;;;5029750;28;20279;-63
2022/05/06 06:29:15;;;;;;;52.70;31.50;;;10.70;99.90;;;;;;5031921;28;20067;-63
2022/05/06 06:31:41;;;;;;;54.47;31.27;;;10.70;99.90;;;;;;5030163;28;20052;-63
2022/05/06 06:34:07;;;;;;;54.95;30.85;;;10.80;99.90;;;;;;5029703;28;20071;-63
2022/05/06 06:36:33;;;;;;;48.42;28.85;;;10.90;99.90;;;;;;5011989;28;20695;-63
2022/05/06 06:38:58;;;;;;;47.78;28.80;;;11.00;99.90;;;;;;5029859;28;20057;-64
2022/05/06 06:41:24;;;;;;;45.75;29.88;;;11.10;99.90;;;;;;5013211;28;20045;-63
2022/05/06 06:43:50;;;;;;;43.53;28.23;;;11.30;99.90;;;;;;5029398;28;20099;-62
2022/05/06 06:46:16;;;;;;;42.03;28.15;;;11.40;99.90;;;;;;5031508;28;20049;-64
2022/05/06 06:48:42;;;;;;;42.20;27.80;;;11.40;99.90;;;;;;5029336;28;20142;-63
2022/05/06 06:51:09;;;;;;;43.10;27.45;;;11.40;99.90;;;;;;5028672;28;20055;-63
2022/05/06 06:53:35;;;;;;;42.80;27.17;;;11.40;99.90;;;;;;5029510;28;20089;-63
2022/05/06 06:56:01;;;;;;;40.50;26.77;;;11.50;99.90;;;;;;5030345;28;20057;-63
2022/05/06 06:58:27;;;;;;;40.63;26.80;;;11.50;99.90;;;;;;5030875;28;20064;-63
2022/05/06 07:00:53;;;;;;;43.50;27.83;;;11.60;99.90;;;;;;5030596;28;20056;-61
2022/05/06 07:03:20;;;;;;;43.03;26.42;;;11.70;99.90;;;;;;5029211;28;20060;-63
2022/05/06 07:14:00;;;;;;;32.25;23.42;;;12.00;99.90;;;;;;5021014;28;20053;-63
2022/05/06 07:16:27;;;;;;;35.10;22.73;;;12.00;99.90;;;;;;5030000;28;20048;-64
2022/05/06 07:18:53;;;;;;;28.10;20.25;;;12.10;99.90;;;;;;5024652;28;20049;-64
2022/05/06 07:21:19;;;;;;;26.23;19.80;;;12.20;99.90;;;;;;5016909;28;20046;-64
2022/05/06 07:23:45;;;;;;;25.63;17.75;;;12.20;99.90;;;;;;5010272;28;20136;-63
2022/05/06 07:26:12;;;;;;;24.98;17.58;;;12.30;99.90;;;;;;5011781;28;20129;-62
2022/05/06 07:28:38;;;;;;;22.83;17.02;;;12.40;99.90;;;;;;5019989;28;20052;-62
2022/05/06 07:31:04;;;;;;;23.70;17.45;;;12.40;99.90;;;;;;5011550;28;20414;-64
2022/05/06 07:33:30;;;;;;;22.85;17.92;;;12.40;99.90;;;;;;5009708;28;20045;-64
2022/05/06 07:35:56;;;;;;;21.70;16.38;;;12.50;99.90;;;;;;5008824;28;20518;-63
2022/05/06 07:38:22;;;;;;;22.90;16.95;;;12.50;99.90;;;;;;5026049;28;20150;-64
2022/05/06 07:40:48;;;;;;;23.95;15.90;;;12.60;99.90;;;;;;5027601;28;20122;-63
2022/05/06 07:43:15;;;;;;;22.35;15.32;;;12.50;99.90;;;;;;5029284;28;20635;-62
2022/05/06 07:45:41;;;;;;;24.70;16.90;;;12.60;99.90;;;;;;5028253;28;20049;-64
2022/05/06 07:48:08;;;;;;;22.70;15.68;;;12.60;99.90;;;;;;5028834;28;20127;-64
2022/05/06 07:50:37;;;;;;;19.42;13.68;;;12.70;99.90;;;;;;5028991;28;20057;-64
2022/05/06 07:53:03;;;;;;;19.02;14.35;;;12.80;99.90;;;;;;5029742;28;20056;-64
2022/05/06 07:55:29;;;;;;;20.13;15.18;;;12.80;99.90;;;;;;5030306;28;20076;-62
2022/05/06 07:57:57;;;;;;;17.40;13.73;;;12.90;99.90;;;;;;5028736;28;20045;-66
2022/05/06 08:00:24;;;;;;;20.52;13.48;;;13.00;99.90;;;;;;5029064;28;20079;-64
2022/05/06 08:05:34;;;;;;;16.55;12.25;;;13.10;99.90;;;;;;5024001;28;20049;-66
2022/05/06 08:08:00;;;;;;;14.25;11.15;;;13.30;99.90;;;;;;5028821;28;20121;-63
2022/05/06 08:10:26;;;;;;;16.38;11.65;;;13.40;99.90;;;;;;5029353;28;20155;-64
2022/05/06 08:12:52;;;;;;;13.75;10.57;;;13.50;99.90;;;;;;5025263;28;20067;-64
2022/05/06 08:15:18;;;;;;;12.93;10.38;;;13.60;99.90;;;;;;5011572;28;20048;-62
2022/05/06 08:17:43;;;;;;;11.82;9.25;;;13.70;99.90;;;;;;5005655;28;20041;-63
2022/05/06 08:20:09;;;;;;;11.38;9.07;;;13.80;99.90;;;;;;5009525;28;20124;-63
2022/05/06 08:22:36;;;;;;;11.27;8.75;;;13.90;99.90;;;;;;5018299;28;20053;-64
2022/05/06 08:25:06;;;;;;;12.05;9.20;;;14.00;99.90;;;;;;5028182;28;20383;-64
2022/05/06 08:27:36;;;;;;;11.88;9.32;;;14.20;99.90;;;;;;5028165;28;20060;-64
2022/05/06 08:30:05;;;;;;;10.48;9.05;;;14.30;99.90;;;;;;5029224;28;20046;-63
2022/05/06 08:32:30;;;;;;;11.35;9.40;;;14.50;99.90;;;;;;5028059;28;20048;-64
2022/05/06 08:34:56;;;;;;;12.13;9.52;;;14.60;99.90;;;;;;5027914;28;20053;-64
2022/05/06 08:37:22;;;;;;;14.75;10.77;;;14.80;99.90;;;;;;5027638;28;20880;-63
2022/05/06 08:39:48;;;;;;;13.65;10.48;;;15.10;99.90;;;;;;5028433;28;20048;-63
2022/05/06 08:42:19;;;;;;;11.77;9.63;;;15.30;99.90;;;;;;5029140;28;20124;-64
2022/05/06 08:53:05;;;;;;;12.95;10.02;;;16.10;99.90;;;;;;5029979;28;20053;-64
2022/05/06 08:55:32;;;;;;;11.50;9.55;;;16.60;99.90;;;;;;5027929;28;20775;-64
2022/05/06 08:57:58;;;;;;;9.68;8.00;;;16.90;99.90;;;;;;5027892;28;20053;-64
2022/05/06 09:00:28;;;;;;;8.57;7.50;;;17.50;99.90;;;;;;5028593;28;20221;-62
2022/05/06 09:02:54;;;;;;;9.57;7.20;;;18.00;99.90;;;;;;5014369;28;20046;-63
2022/05/06 09:05:21;;;;;;;9.77;7.38;;;18.40;99.90;;;;;;5007699;28;20050;-63
2022/05/06 09:08:04;;;;;;;7.88;6.65;;;18.80;99.90;;;;;;5018866;28;20156;-65
2022/05/06 09:10:30;;;;;;;6.80;5.90;;;19.10;99.90;;;;;;5026225;28;20553;-64
2022/05/06 09:13:00;;;;;;;7.68;6.10;;;19.40;99.90;;;;;;5031608;28;20458;-62
2022/05/06 09:18:24;;;;;;;5.45;4.68;;;20.10;99.90;;;;;;5026662;28;20045;-63
2022/05/06 09:20:50;;;;;;;5.10;4.60;;;20.50;99.90;;;;;;5031203;28;20057;-63
2022/05/06 09:23:24;;;;;;;8.85;5.88;;;21.20;99.90;;;;;;5032079;28;20053;-64
2022/05/06 09:25:52;;;;;;;6.80;5.20;;;21.60;99.90;;;;;;5020557;28;20041;-64
2022/05/06 09:28:29;;;;;;;5.97;5.07;;;21.80;99.90;;;;;;5030412;28;20099;-63
2022/05/06 09:31:03;;;;;;;7.25;5.63;;;22.00;99.90;;;;;;5014398;28;20510;-63
2022/05/06 09:33:42;;;;;;;7.38;5.85;;;22.00;99.90;;;;;;5031757;28;20117;-65
2022/05/06 09:36:30;;;;;;;6.20;5.45;;;22.10;99.90;;;;;;5031639;28;20131;-65
2022/05/06 09:39:14;;;;;;;5.53;4.15;;;22.30;99.90;;;;;;5015779;28;20049;-63
2022/05/06 09:41:41;;;;;;;7.40;5.45;;;22.40;99.30;;;;;;5031988;28;20045;-63
2022/05/06 09:44:10;;;;;;;6.35;4.88;;;22.20;99.20;;;;;;5030749;28;20098;-63
2022/05/06 09:46:37;;;;;;;5.50;4.28;;;21.90;98.70;;;;;;5029400;28;20052;-62
2022/05/06 09:49:03;;;;;;;6.68;4.70;;;21.80;97.90;;;;;;5030989;28;20045;-63
2022/05/06 09:51:34;;;;;;;5.20;4.50;;;21.60;98.40;;;;;;5031798;28;20498;-62
2022/05/06 09:54:02;;;;;;;5.53;4.50;;;21.40;98.30;;;;;;5032353;28;20045;-64
2022/05/06 09:56:28;;;;;;;5.80;4.82;;;21.30;98.20;;;;;;5030913;28;20183;-64
2022/05/06 09:58:56;;;;;;;5.70;5.13;;;21.20;98.90;;;;;;5032464;28;20716;-62
2022/05/06 10:01:22;;;;;;;6.25;4.68;;;21.00;99.40;;;;;;5030705;28;20920;-62
2022/05/06 10:03:48;;;;;;;5.70;5.10;;;21.00;99.40;;;;;;5031917;28;20049;-64
2022/05/06 10:06:14;;;;;;;5.38;4.57;;;21.00;99.10;;;;;;5030411;28;20042;-67
2022/05/06 10:08:53;;;;;;;6.28;4.70;;;20.80;99.30;;;;;;5011389;28;20119;-64
2022/05/06 10:11:23;;;;;;;5.38;4.82;;;20.90;98.80;;;;;;5023266;28;20116;-64
2022/05/06 10:13:51;;;;;;;6.55;5.25;;;20.80;99.50;;;;;;5031226;28;20049;-63
2022/05/06 10:16:16;;;;;;;7.35;5.60;;;20.70;99.90;;;;;;5030488;28;20087;-65
2022/05/06 10:18:44;;;;;;;6.07;5.28;;;20.60;99.80;;;;;;5030523;28;20536;-63
2022/05/06 10:21:11;;;;;;;9.27;6.00;;;20.60;99.90;;;;;;5030574;28;20119;-63
2022/05/06 10:23:51;;;;;;;6.30;5.25;;;20.50;99.60;;;;;;5030217;28;20517;-62
2022/05/06 10:26:42;;;;;;;6.15;5.47;;;20.60;98.80;;;;;;5031124;28;20077;-62
2022/05/06 10:32:27;;;;;;;7.07;5.05;;;20.60;99.10;;;;;;5029456;28;20096;-63
2022/05/06 10:35:02;;;;;;;7.80;5.65;;;20.70;99.40;;;;;;5030764;28;20067;-63
2022/05/06 10:37:45;;;;;;;6.95;5.22;;;20.90;99.20;;;;;;5030799;28;20049;-62
2022/05/06 10:40:22;;;;;;;5.43;4.93;;;20.90;99.10;;;;;;5030397;28;20371;-62
2022/05/06 10:42:49;;;;;;;6.05;4.97;;;20.90;98.80;;;;;;5030830;28;20049;-62
2022/05/06 10:45:29;;;;;;;5.25;3.67;;;20.90;98.70;;;;;;5029859;28;20041;-63
2022/05/06 10:47:55;;;;;;;5.47;4.07;;;20.90;97.50;;;;;;5017300;28;20033;-62
2022/05/06 10:50:24;;;;;;;10.95;5.00;;;20.90;97.90;;;;;;5027783;28;20048;-63
2022/05/06 10:52:50;;;;;;;5.03;3.83;;;20.80;98.50;;;;;;5014187;28;20057;-63
2022/05/06 10:55:18;;;;;;;14.60;6.55;;;20.80;97.30;;;;;;5031478;28;20045;-63
2022/05/06 10:58:02;;;;;;;5.60;4.50;;;20.80;98.10;;;;;;5030230;28;20204;-62
2022/05/06 11:00:29;;;;;;;5.60;3.80;;;20.90;98.00;;;;;;5022138;28;20069;-63
2022/05/06 11:02:58;;;;;;;6.40;4.20;;;20.90;97.10;;;;;;5028079;28;20053;-62
2022/05/06 11:05:24;;;;;;;6.43;4.05;;;20.70;97.30;;;;;;5011808;28;20060;-63
2022/05/06 11:07:54;;;;;;;4.30;3.50;;;20.70;97.70;;;;;;5029407;28;20052;-62
2022/05/06 11:10:22;;;;;;;4.65;3.40;;;20.70;98.30;;;;;;5028793;28;20049;-63
2022/05/06 11:12:53;;;;;;;4.95;3.60;;;20.80;97.20;;;;;;5030832;28;20060;-62
2022/05/06 11:15:24;;;;;;;4.20;3.70;;;20.80;97.00;;;;;;5028191;28;20502;-63
2022/05/06 11:17:50;;;;;;;5.00;3.85;;;20.80;97.50;;;;;;5028520;28;20050;-63
2022/05/06 11:20:19;;;;;;;5.13;3.17;;;20.70;97.50;;;;;;5029894;28;20053;-63
2022/05/06 11:22:52;;;;;;;5.07;3.17;;;20.60;97.30;;;;;;5017792;28;20141;-63
2022/05/06 11:25:18;;;;;;;6.65;3.15;;;20.50;97.30;;;;;;5023107;28;20110;-63
2022/05/06 11:27:43;;;;;;;4.90;3.08;;;20.50;97.80;;;;;;5030303;28;20700;-63
2022/05/06 11:30:17;;;;;;;3.95;3.05;;;20.50;97.90;;;;;;5029401;28;20042;-62
2022/05/06 11:32:54;;;;;;;5.28;3.20;;;20.60;97.60;;;;;;5028399;28;20045;-63
2022/05/06 11:35:24;;;;;;;4.38;3.00;;;20.60;97.50;;;;;;5029934;28;20058;-63
2022/05/06 11:37:49;;;;;;;6.45;3.20;;;20.60;97.80;;;;;;5016140;28;20196;-62
2022/05/06 11:40:37;;;;;;;4.55;2.97;;;20.50;97.80;;;;;;5015364;28;20194;-63
2022/05/06 11:43:04;;;;;;;3.92;2.60;;;20.50;97.80;;;;;;5028198;28;20045;-64
2022/05/06 11:48:18;;;;;;;4.85;3.25;;;20.70;98.20;;;;;;5025708;28;20505;-62
2022/05/06 11:50:46;;;;;;;4.95;3.22;;;20.70;97.80;;;;;;5028643;28;20048;-61
2022/05/06 11:53:15;;;;;;;6.75;3.33;;;20.40;98.00;;;;;;5029950;28;20049;-61
2022/05/06 11:55:43;;;;;;;4.10;2.97;;;20.30;98.80;;;;;;5029854;28;20057;-63
2022/05/06 11:58:17;;;;;;;4.85;3.45;;;20.30;98.70;;;;;;5029928;28;20093;-62
2022/05/06 12:00:44;;;;;;;5.68;3.13;;;20.40;98.70;;;;;;5028170;28;20570;-61
2022/05/06 12:03:13;;;;;;;3.78;2.72;;;20.40;98.50;;;;;;5028721;28;20041;-63
2022/05/06 12:05:40;;;;;;;3.63;2.80;;;20.50;98.60;;;;;;5028548;28;20045;-63
2022/05/06 12:08:10;;;;;;;6.28;3.03;;;20.50;98.30;;;;;;5029025;28;20133;-63
2022/05/06 12:10:39;;;;;;;4.50;2.70;;;20.60;98.70;;;;;;5027981;28;20110;-64
2022/05/06 12:13:10;;;;;;;5.50;3.45;;;20.60;98.80;;;;;;5012626;28;20092;-61
2022/05/06 12:15:38;;;;;;;4.30;3.40;;;20.60;99.30;;;;;;5011062;28;20049;-61
2022/05/06 12:18:05;;;;;;;5.18;3.13;;;20.50;99.20;;;;;;5030087;28;20121;-62
2022/05/06 12:20:37;;;;;;;4.70;3.15;;;20.60;99.30;;;;;;5028644;28;20577;-68
2022/05/06 12:23:07;;;;;;;6.25;3.30;;;20.60;99.10;;;;;;5029666;28;20490;-63
2022/05/06 12:25:38;;;;;;;5.10;2.85;;;20.70;99.60;;;;;;5027919;28;20079;-65
2022/05/06 12:28:09;;;;;;;5.75;3.00;;;20.70;99.20;;;;;;5023958;28;20125;-60
2022/05/06 12:30:38;;;;;;;3.83;2.42;;;20.70;99.20;;;;;;5029471;28;20054;-62
2022/05/06 12:33:09;;;;;;;4.13;2.42;;;20.70;98.90;;;;;;5029742;28;20077;-62
2022/05/06 12:35:57;;;;;;;3.45;2.50;;;20.80;99.00;;;;;;5027371;28;20557;-62
2022/05/06 12:38:47;;;;;;;7.35;3.13;;;21.00;99.00;;;;;;5027838;28;20045;-61
2022/05/06 12:41:32;;;;;;;4.20;2.63;;;21.10;99.20;;;;;;5021697;28;20056;-64
2022/05/06 12:44:17;;;;;;;3.70;2.88;;;21.00;99.20;;;;;;5015470;28;20128;-62
2022/05/06 12:46:43;;;;;;;4.45;2.92;;;21.00;98.90;;;;;;5031724;28;20383;-65
2022/05/06 12:51:53;;;;;;;5.32;2.80;;;20.90;99.30;;;;;;5031578;28;20748;-63
2022/05/06 12:54:18;;;;;;;3.08;2.38;;;21.00;99.20;;;;;;4999596;28;20131;-62
2022/05/06 12:56:44;;;;;;;5.10;2.63;;;21.20;98.70;;;;;;5033139;28;20045;-60
2022/05/06 12:59:10;;;;;;;4.28;2.65;;;21.20;98.20;;;;;;5016164;28;20053;-61
2022/05/06 13:01:36;;;;;;;3.60;2.90;;;21.30;98.60;;;;;;5033571;28;20053;-65
2022/05/06 13:04:03;;;;;;;4.80;3.15;;;21.30;98.60;;;;;;5032438;28;20053;-62
2022/05/06 13:06:32;;;;;;;4.50;3.03;;;21.20;98.50;;;;;;4999431;28;20052;-62
2022/05/06 13:08:59;;;;;;;5.95;2.90;;;21.20;98.70;;;;;;5031586;28;20411;-61
2022/05/06 13:11:25;;;;;;;5.38;3.13;;;21.30;99.20;;;;;;5032060;28;20045;-62
2022/05/06 13:13:51;;;;;;;5.85;2.92;;;21.30;98.80;;;;;;5032536;28;20517;-61
2022/05/06 13:16:17;;;;;;;5.15;3.22;;;21.40;99.10;;;;;;5031929;28;20054;-61
2022/05/06 13:18:43;;;;;;;5.40;3.20;;;21.40;98.90;;;;;;5032831;28;20038;-62
2022/05/06 13:21:09;;;;;;;5.22;3.40;;;21.30;98.40;;;;;;5032205;28;20053;-61
2022/05/06 13:23:35;;;;;;;5.32;3.10;;;21.30;98.70;;;;;;5031755;28;20369;-64